Time;durP1;ratioP1;P1;durP2;ratioP2;P2;SDS_P1;SDS_P2;PMS_P1;PMS_P2;Temp;Humidity;BMP_temperature;BMP_pressure;BME280_temperature;BME280_humidity;BME280_pressure;Samples;Min_cycle;Max_cycle;Signal;HPM_P1;HPM_P2
2023/08/29 00:00:29;;;;;;;13.30;9.10;;;;;;;15.96;100.00;100170.50;8324324;28;20207;-61
2023/08/29 00:04:29;;;;;;;13.27;9.20;;;;;;;15.93;100.00;100159.97;8323129;28;20046;-61
2023/08/29 00:08:33;;;;;;;12.00;9.23;;;;;;;15.85;100.00;100140.97;8323683;28;20450;-60
2023/08/29 00:12:33;;;;;;;12.30;9.77;;;;;;;15.84;100.00;100137.41;8323514;28;20528;-62
2023/08/29 00:16:34;;;;;;;12.85;8.57;;;;;;;15.74;100.00;100134.91;8322959;28;20407;-61
2023/08/29 00:20:34;;;;;;;10.48;9.18;;;;;;;15.76;100.00;100144.81;8322550;28;20057;-61
2023/08/29 00:24:35;;;;;;;13.13;9.40;;;;;;;15.93;100.00;100149.94;8322511;28;20064;-62
2023/08/29 00:28:35;;;;;;;18.67;10.07;;;;;;;16.02;100.00;100142.50;8322780;28;20041;-62
2023/08/29 00:32:36;;;;;;;11.77;9.57;;;;;;;16.06;100.00;100149.28;8322610;28;20136;-61
2023/08/29 00:36:36;;;;;;;16.02;8.98;;;;;;;15.86;100.00;100153.56;8321801;28;20545;-61
2023/08/29 00:40:37;;;;;;;14.90;9.93;;;;;;;15.73;100.00;100168.66;8322270;28;20048;-61
2023/08/29 00:44:38;;;;;;;15.77;10.15;;;;;;;15.86;100.00;100159.03;8322131;28;20557;-62
2023/08/29 00:48:38;;;;;;;15.25;10.02;;;;;;;15.73;100.00;100147.91;8321382;28;20099;-61
2023/08/29 00:52:39;;;;;;;20.15;11.63;;;;;;;15.73;100.00;100165.94;8321501;28;20050;-61
2023/08/29 00:56:40;;;;;;;14.75;11.25;;;;;;;15.92;100.00;100163.75;8321530;28;20045;-62
2023/08/29 01:00:41;;;;;;;15.23;11.38;;;;;;;15.94;100.00;100161.66;8321764;28;20041;-62
2023/08/29 01:04:42;;;;;;;18.10;11.82;;;;;;;16.21;100.00;100159.22;8321054;28;20041;-61
2023/08/29 01:08:44;;;;;;;16.90;11.68;;;;;;;16.27;100.00;100168.53;8321649;28;20044;-62
2023/08/29 01:12:56;;;;;;;17.73;11.90;;;;;;;16.34;100.00;100166.72;8321183;28;20052;-62
2023/08/29 01:17:13;;;;;;;15.65;10.23;;;;;;;16.35;100.00;100171.19;8320821;28;20036;-61
2023/08/29 01:21:30;;;;;;;14.43;11.02;;;;;;;16.22;100.00;100179.16;8319101;28;20033;-62
2023/08/29 01:25:43;;;;;;;15.13;10.50;;;;;;;16.24;100.00;100185.25;8317805;28;20506;-62
2023/08/29 01:29:46;;;;;;;16.85;11.35;;;;;;;16.20;100.00;100192.13;8320154;28;20064;-62
2023/08/29 01:33:47;;;;;;;18.10;10.45;;;;;;;16.10;100.00;100194.28;8320264;28;20461;-62
2023/08/29 01:37:48;;;;;;;14.73;9.52;;;;;;;16.01;100.00;100195.38;8316705;28;20041;-61
2023/08/29 01:41:48;;;;;;;15.88;10.60;;;;;;;16.07;100.00;100194.63;8320534;28;20053;-61
2023/08/29 01:45:49;;;;;;;16.92;11.73;;;;;;;16.11;100.00;100201.41;8320190;28;20495;-62
2023/08/29 01:49:51;;;;;;;17.33;11.25;;;;;;;16.19;100.00;100204.06;8320234;28;20072;-62
2023/08/29 01:53:52;;;;;;;15.00;11.20;;;;;;;15.89;100.00;100216.75;8316754;28;20091;-62
2023/08/29 01:57:54;;;;;;;16.50;11.20;;;;;;;16.08;100.00;100218.13;8320177;28;20291;-61
2023/08/29 02:01:57;;;;;;;21.23;12.68;;;;;;;16.20;100.00;100211.22;8320166;28;20091;-62
2023/08/29 02:05:58;;;;;;;19.00;12.85;;;;;;;16.35;100.00;100214.84;8319821;28;20084;-62
2023/08/29 02:09:58;;;;;;;17.20;11.25;;;;;;;16.33;100.00;100223.19;8320134;28;20041;-62
2023/08/29 02:13:59;;;;;;;17.38;12.52;;;;;;;16.38;100.00;100220.75;8319502;28;20038;-61
2023/08/29 02:17:59;;;;;;;16.00;12.00;;;;;;;16.20;100.00;100214.81;8319819;28;20187;-61
2023/08/29 02:22:00;;;;;;;18.05;12.93;;;;;;;16.20;100.00;100216.69;8317588;28;20503;-61
2023/08/29 02:26:05;;;;;;;21.23;12.50;;;;;;;16.17;100.00;100219.78;8319702;28;20084;-62
2023/08/29 02:30:06;;;;;;;21.55;13.43;;;;;;;16.22;100.00;100220.06;8319975;28;20034;-62
2023/08/29 02:34:07;;;;;;;19.13;12.02;;;;;;;16.20;100.00;100222.13;8319574;28;20037;-61
2023/08/29 02:38:07;;;;;;;17.65;13.27;;;;;;;16.31;100.00;100213.53;8319110;28;20092;-61
2023/08/29 02:42:08;;;;;;;19.17;13.73;;;;;;;16.33;100.00;100211.44;8319484;28;20049;-61
2023/08/29 02:46:08;;;;;;;20.02;13.13;;;;;;;16.32;100.00;100212.47;8319556;28;20065;-61
2023/08/29 02:50:09;;;;;;;27.15;14.45;;;;;;;16.26;100.00;100199.56;8319348;28;20392;-61
2023/08/29 02:54:10;;;;;;;23.35;13.23;;;;;;;16.27;100.00;100190.34;8319200;28;20052;-61
2023/08/29 02:58:10;;;;;;;21.05;13.93;;;;;;;16.09;100.00;100176.19;8319561;28;20065;-61
2023/08/29 03:02:11;;;;;;;18.50;13.15;;;;;;;16.17;100.00;100168.81;8319014;28;20415;-61
2023/08/29 03:06:11;;;;;;;25.10;13.40;;;;;;;16.16;100.00;100158.91;8318822;28;20033;-61
2023/08/29 03:10:12;;;;;;;19.88;12.80;;;;;;;16.08;100.00;100152.69;8321188;28;20494;-61
2023/08/29 03:14:12;;;;;;;18.73;12.80;;;;;;;16.11;100.00;100136.81;8323791;28;20048;-60
2023/08/29 03:18:13;;;;;;;22.20;12.48;;;;;;;16.06;100.00;100138.38;8326517;28;20037;-61
2023/08/29 03:22:14;;;;;;;18.38;12.27;;;;;;;16.04;100.00;100135.84;8326107;28;20069;-61
2023/08/29 03:26:15;;;;;;;18.02;11.82;;;;;;;16.03;100.00;100133.28;8327728;28;20521;-59
2023/08/29 03:30:16;;;;;;;17.77;12.52;;;;;;;15.98;100.00;100130.28;8324382;28;20384;-59
2023/08/29 03:34:16;;;;;;;29.35;14.27;;;;;;;15.95;100.00;100119.75;8327058;28;20038;-60
2023/08/29 03:38:18;;;;;;;23.13;14.15;;;;;;;16.05;100.00;100120.34;8326994;28;20041;-60
2023/08/29 03:42:19;;;;;;;23.73;14.18;;;;;;;16.01;100.00;100119.03;8327457;28;20038;-60
2023/08/29 03:46:21;;;;;;;23.05;14.98;;;;;;;15.92;100.00;100114.66;8316882;28;20116;-61
2023/08/29 03:50:21;;;;;;;23.13;15.30;;;;;;;15.96;100.00;100116.84;8320789;28;20041;-61
2023/08/29 03:54:22;;;;;;;26.85;15.27;;;;;;;16.21;100.00;100122.88;8327706;28;20041;-61
2023/08/29 03:58:23;;;;;;;25.55;15.80;;;;;;;16.14;100.00;100119.22;8323204;28;20041;-61
2023/08/29 04:02:24;;;;;;;26.88;15.88;;;;;;;16.08;100.00;100125.41;8325255;28;20419;-61
2023/08/29 04:06:25;;;;;;;25.98;15.93;;;;;;;16.12;100.00;100122.13;8341603;28;20380;-61
2023/08/29 04:10:26;;;;;;;31.25;16.95;;;;;;;16.16;100.00;100128.06;8323028;28;20639;-61
2023/08/29 04:14:26;;;;;;;31.70;16.60;;;;;;;16.16;100.00;100122.63;8323484;28;20029;-61
2023/08/29 04:18:27;;;;;;;28.48;16.30;;;;;;;16.07;100.00;100124.56;8320744;28;20041;-61
2023/08/29 04:22:27;;;;;;;26.20;16.15;;;;;;;16.05;100.00;100142.16;8323459;28;20073;-61
2023/08/29 04:26:28;;;;;;;23.05;15.52;;;;;;;15.99;100.00;100137.44;8321418;28;20048;-61
2023/08/29 04:30:29;;;;;;;30.67;16.90;;;;;;;15.95;100.00;100136.94;8323875;28;20037;-61
2023/08/29 04:34:29;;;;;;;25.67;16.42;;;;;;;16.06;100.00;100138.38;8323562;28;20038;-61
2023/08/29 04:38:31;;;;;;;34.05;17.88;;;;;;;16.10;100.00;100139.72;8321795;28;20207;-61
2023/08/29 04:42:33;;;;;;;30.27;17.95;;;;;;;16.07;100.00;100156.47;8323186;28;20038;-61
2023/08/29 04:46:33;;;;;;;29.75;16.98;;;;;;;16.01;100.00;100149.00;8323183;28;20499;-61
2023/08/29 04:50:34;;;;;;;26.92;16.45;;;;;;;15.88;100.00;100146.03;8323370;28;20411;-61
2023/08/29 04:54:34;;;;;;;27.70;17.17;;;;;;;15.89;100.00;100145.03;8323057;28;20116;-61
2023/08/29 04:58:36;;;;;;;30.15;17.58;;;;;;;15.94;100.00;100150.75;8322641;28;20600;-59
2023/08/29 05:02:36;;;;;;;29.13;17.60;;;;;;;15.96;100.00;100144.09;8322151;28;20447;-60
2023/08/29 05:06:38;;;;;;;28.00;17.48;;;;;;;15.95;100.00;100138.84;8322232;28;20119;-59
2023/08/29 05:10:39;;;;;;;30.17;18.27;;;;;;;16.01;100.00;100141.66;8322804;28;20053;-60
2023/08/29 05:14:39;;;;;;;30.00;17.35;;;;;;;15.95;100.00;100138.84;8318144;28;20056;-60
2023/08/29 05:18:40;;;;;;;29.55;18.27;;;;;;;15.98;100.00;100143.94;8313034;28;20131;-60
2023/08/29 05:22:40;;;;;;;31.27;18.83;;;;;;;16.03;100.00;100141.47;8347465;28;20045;-60
2023/08/29 05:26:41;;;;;;;31.42;19.08;;;;;;;16.01;100.00;100138.94;8320418;28;20034;-60
2023/08/29 05:30:42;;;;;;;35.28;18.92;;;;;;;16.04;100.00;100143.19;8317925;28;20447;-60
2023/08/29 05:34:43;;;;;;;29.77;18.98;;;;;;;16.11;100.00;100146.88;8317208;28;20041;-60
2023/08/29 05:38:43;;;;;;;31.90;17.98;;;;;;;16.17;100.00;100146.13;8317619;28;20653;-60
2023/08/29 05:42:44;;;;;;;32.05;18.95;;;;;;;16.20;100.00;100149.34;8321088;28;20128;-59
2023/08/29 05:46:44;;;;;;;32.92;19.27;;;;;;;16.41;100.00;100151.34;8322569;28;20063;-59
2023/08/29 05:50:45;;;;;;;34.65;19.73;;;;;;;16.40;100.00;100152.34;8320534;28;20048;-59
2023/08/29 05:54:45;;;;;;;34.53;20.45;;;;;;;16.40;100.00;100146.88;8321387;28;20598;-57
2023/08/29 05:58:46;;;;;;;41.28;22.27;;;;;;;16.41;100.00;100148.59;8321895;28;20041;-60
2023/08/29 06:02:47;;;;;;;42.78;24.00;;;;;;;16.44;100.00;100142.81;8318727;28;20044;-62
2023/08/29 06:06:49;;;;;;;48.05;22.95;;;;;;;16.51;100.00;100138.28;8314926;28;20046;-61
2023/08/29 06:10:49;;;;;;;40.72;22.65;;;;;;;16.55;100.00;100150.50;8321957;28;20041;-61
2023/08/29 06:14:49;;;;;;;45.53;25.15;;;;;;;16.62;100.00;100151.47;8323654;28;20049;-61
2023/08/29 06:18:50;;;;;;;43.85;23.67;;;;;;;16.61;100.00;100138.84;8324172;28;20557;-58
2023/08/29 06:22:50;;;;;;;45.20;25.35;;;;;;;16.70;100.00;100144.03;8323770;28;20049;-58
2023/08/29 06:26:51;;;;;;;47.45;24.90;;;;;;;16.85;100.00;100152.22;8322400;28;20138;-58
2023/08/29 06:30:51;;;;;;;39.55;23.83;;;;;;;16.89;100.00;100156.25;8323782;28;20128;-59
2023/08/29 06:34:52;;;;;;;42.47;23.05;;;;;;;16.91;100.00;100160.50;8323520;28;20085;-58
2023/08/29 06:38:53;;;;;;;40.92;21.85;;;;;;;17.02;100.00;100161.91;8345656;28;20049;-59
2023/08/29 06:42:54;;;;;;;46.15;23.77;;;;;;;16.97;100.00;100161.63;8323753;28;20056;-58
2023/08/29 06:46:54;;;;;;;42.10;23.27;;;;;;;17.01;100.00;100163.78;8328646;28;20124;-58
2023/08/29 06:50:55;;;;;;;42.10;23.58;;;;;;;17.09;100.00;100166.41;8329638;28;20041;-58
2023/08/29 06:54:56;;;;;;;39.78;24.20;;;;;;;17.11;100.00;100168.97;8329207;28;20112;-58
2023/08/29 06:58:58;;;;;;;48.03;25.63;;;;;;;17.21;100.00;100175.81;8330307;28;20045;-58
2023/08/29 07:03:05;;;;;;;44.00;24.10;;;;;;;17.31;100.00;100165.41;8332182;28;20049;-57
2023/08/29 07:07:05;;;;;;;45.08;26.23;;;;;;;17.38;100.00;100165.47;8359322;28;20044;-58
2023/08/29 07:11:07;;;;;;;44.10;26.70;;;;;;;17.47;100.00;100158.88;8337664;28;20059;-63
2023/08/29 07:15:08;;;;;;;44.88;26.50;;;;;;;17.48;100.00;100171.53;8331429;28;20136;-63
2023/08/29 07:19:10;;;;;;;48.47;25.92;;;;;;;17.49;100.00;100174.06;8335246;28;20033;-59
2023/08/29 07:23:10;;;;;;;48.78;25.88;;;;;;;17.49;100.00;100175.94;8328694;28;20072;-59
2023/08/29 07:27:11;;;;;;;50.60;26.35;;;;;;;17.60;100.00;100178.19;8328258;28;20037;-59
2023/08/29 07:31:11;;;;;;;47.65;25.92;;;;;;;17.56;100.00;100174.13;8328444;28;20052;-59
2023/08/29 07:35:13;;;;;;;50.53;26.20;;;;;;;17.52;100.00;100172.84;8327563;28;20038;-59
2023/08/29 07:39:16;;;;;;;48.60;26.08;;;;;;;17.53;100.00;100178.09;8327393;28;20044;-59
2023/08/29 07:43:16;;;;;;;53.05;26.60;;;;;;;17.58;100.00;100185.72;8327113;28;20043;-59
2023/08/29 07:47:17;;;;;;;48.30;26.70;;;;;;;17.76;100.00;100180.66;8327547;28;20033;-59
2023/08/29 07:51:17;;;;;;;44.80;25.95;;;;;;;17.82;100.00;100179.03;8327667;28;20083;-60
2023/08/29 07:55:18;;;;;;;49.03;26.50;;;;;;;17.89;100.00;100186.25;8326554;28;20044;-60
2023/08/29 07:59:19;;;;;;;55.85;27.00;;;;;;;17.83;100.00;100184.31;8326903;28;20038;-60
2023/08/29 08:03:19;;;;;;;50.38;26.50;;;;;;;18.08;100.00;100182.84;8326827;28;20037;-59
2023/08/29 08:07:20;;;;;;;55.58;28.02;;;;;;;17.95;100.00;100185.47;8325541;28;20499;-59
2023/08/29 08:11:21;;;;;;;52.40;27.30;;;;;;;18.15;100.00;100186.53;8327334;28;20399;-59
2023/08/29 08:15:21;;;;;;;55.63;28.83;;;;;;;18.16;100.00;100193.69;8326982;28;20408;-59
2023/08/29 08:19:22;;;;;;;55.38;28.67;;;;;;;18.31;100.00;100185.38;8326706;28;20053;-59
2023/08/29 08:23:22;;;;;;;54.67;28.17;;;;;;;18.48;100.00;100181.34;8326342;28;20049;-59
2023/08/29 08:27:22;;;;;;;56.47;28.63;;;;;;;18.52;100.00;100188.97;8326733;28;20041;-61
2023/08/29 08:31:23;;;;;;;49.80;26.25;;;;;;;18.71;100.00;100188.25;8326599;28;20064;-61
2023/08/29 08:35:25;;;;;;;38.67;22.95;;;;;;;18.87;100.00;100185.19;8326205;28;20112;-61
2023/08/29 08:39:25;;;;;;;29.42;16.77;;;;;;;19.04;100.00;100197.50;8326147;28;20047;-59
2023/08/29 08:43:28;;;;;;;39.60;22.75;;;;;;;18.82;100.00;100192.31;8325763;28;20048;-58
2023/08/29 08:47:28;;;;;;;40.22;21.48;;;;;;;18.86;100.00;100196.34;8322217;28;20073;-58
2023/08/29 08:51:31;;;;;;;41.88;21.27;;;;;;;19.10;100.00;100204.94;8325892;28;20084;-56
2023/08/29 08:55:31;;;;;;;41.55;24.30;;;;;;;18.99;98.88;100197.25;8325586;28;20044;-57
2023/08/29 08:59:32;;;;;;;39.63;21.40;;;;;;;19.23;98.51;100188.53;8325857;28;20514;-56
2023/08/29 09:03:34;;;;;;;37.22;21.65;;;;;;;19.71;97.20;100188.50;8324817;28;20045;-56
2023/08/29 09:07:39;;;;;;;35.55;20.30;;;;;;;19.69;95.27;100188.72;8321936;28;20037;-56
2023/08/29 09:11:41;;;;;;;43.00;23.85;;;;;;;20.05;91.51;100188.34;8321572;28;20041;-57
2023/08/29 09:15:42;;;;;;;42.15;25.42;;;;;;;20.51;87.20;100189.25;8323539;28;20049;-58
2023/08/29 09:19:45;;;;;;;43.58;25.08;;;;;;;20.45;88.40;100187.34;8322002;28;20270;-58
2023/08/29 09:23:45;;;;;;;38.35;24.15;;;;;;;20.78;88.29;100201.91;8317304;28;20365;-57
2023/08/29 09:27:47;;;;;;;44.72;23.80;;;;;;;21.12;85.90;100191.50;8322472;28;20030;-58
2023/08/29 09:31:48;;;;;;;43.60;25.48;;;;;;;21.23;85.36;100193.53;8322968;28;20365;-60
2023/08/29 09:35:49;;;;;;;33.78;20.75;;;;;;;21.51;85.52;100196.00;8323802;28;20050;-58
2023/08/29 09:39:53;;;;;;;29.52;17.35;;;;;;;21.54;85.04;100203.81;8321903;28;20092;-59
2023/08/29 09:43:54;;;;;;;31.95;20.60;;;;;;;21.05;84.12;100198.06;8322416;28;20045;-59
2023/08/29 09:47:54;;;;;;;34.88;21.75;;;;;;;21.66;83.36;100196.56;8321914;28;20080;-62
2023/08/29 09:52:00;;;;;;;37.97;21.40;;;;;;;22.28;79.62;100190.22;8322254;28;20133;-62
2023/08/29 09:56:07;;;;;;;42.97;24.17;;;;;;;22.44;79.28;100195.16;8321948;28;20088;-63
2023/08/29 10:00:09;;;;;;;49.53;29.48;;;;;;;22.74;78.49;100180.50;8322267;28;20045;-63
2023/08/29 10:04:14;;;;;;;41.10;24.85;;;;;;;24.10;73.29;100182.66;8318285;28;20043;-62
2023/08/29 10:08:23;;;;;;;46.47;28.77;;;;;;;24.27;70.79;100188.31;8321609;28;20041;-63
2023/08/29 10:12:26;;;;;;;43.33;27.00;;;;;;;23.77;74.68;100175.88;8317874;28;20059;-62
2023/08/29 10:16:28;;;;;;;41.78;26.10;;;;;;;23.44;71.33;100175.47;8321576;28;20029;-62
2023/08/29 10:20:32;;;;;;;42.53;27.63;;;;;;;24.62;68.26;100176.25;8327146;28;20048;-62
2023/08/29 10:24:35;;;;;;;45.22;28.63;;;;;;;24.64;68.51;100164.94;8327657;28;20045;-62
2023/08/29 10:28:37;;;;;;;31.70;22.03;;;;;;;26.02;65.72;100175.75;8328663;28;20030;-62
2023/08/29 10:32:40;;;;;;;34.47;22.27;;;;;;;26.27;63.56;100169.81;8328444;28;20048;-61
2023/08/29 10:36:45;;;;;;;39.25;23.67;;;;;;;25.11;66.42;100165.75;8327871;28;20037;-62
2023/08/29 10:40:46;;;;;;;29.88;18.83;;;;;;;24.45;66.79;100175.25;8327625;28;20111;-63
2023/08/29 10:44:47;;;;;;;30.15;19.73;;;;;;;23.67;70.52;100159.03;8327502;28;20742;-63
2023/08/29 10:48:49;;;;;;;29.27;19.38;;;;;;;23.61;72.03;100152.56;8327745;28;20076;-62
2023/08/29 10:52:55;;;;;;;30.80;20.67;;;;;;;23.21;71.35;100154.94;8327347;28;20048;-62
2023/08/29 10:56:56;;;;;;;30.38;19.55;;;;;;;23.35;72.13;100149.28;8323764;28;20133;-63
2023/08/29 11:00:57;;;;;;;29.90;18.63;;;;;;;24.50;67.99;100141.38;8327068;28;20038;-62
2023/08/29 11:05:13;;;;;;;20.55;14.05;;;;;;;24.38;66.09;100137.75;8326988;28;20048;-63
2023/08/29 11:09:20;;;;;;;23.05;14.18;;;;;;;23.58;68.92;100133.69;8327343;28;20041;-59
2023/08/29 11:13:21;;;;;;;22.08;14.38;;;;;;;23.29;68.75;100140.03;8326820;28;20048;-58
2023/08/29 11:17:23;;;;;;;19.60;13.27;;;;;;;22.84;71.49;100135.88;8327400;28;20041;-59
2023/08/29 11:21:24;;;;;;;19.90;11.88;;;;;;;23.09;69.55;100129.19;8327062;28;20410;-59
2023/08/29 11:25:24;;;;;;;22.05;13.23;;;;;;;24.26;70.69;100125.84;8324901;28;20033;-58
2023/08/29 11:29:34;;;;;;;15.57;11.68;;;;;;;24.11;66.63;100120.78;8325987;28;20086;-58
2023/08/29 11:33:36;;;;;;;13.88;11.40;;;;;;;24.14;64.58;100114.78;8325784;28;20084;-59
2023/08/29 11:37:38;;;;;;;13.05;10.38;;;;;;;25.08;62.97;100128.38;8324720;28;20324;-59
2023/08/29 11:41:42;;;;;;;13.73;10.73;;;;;;;24.78;64.18;100122.16;8323299;28;20050;-60
2023/08/29 11:45:42;;;;;;;13.47;9.37;;;;;;;24.55;65.52;100116.63;8325749;28;20133;-59
2023/08/29 11:49:43;;;;;;;15.30;8.98;;;;;;;24.82;65.27;100120.56;8326341;28;20037;-59
2023/08/29 11:53:43;;;;;;;9.68;7.80;;;;;;;25.02;63.35;100126.56;8325777;28;20038;-59
2023/08/29 11:57:44;;;;;;;13.50;8.77;;;;;;;24.47;62.76;100126.13;8324355;28;20065;-59
2023/08/29 12:01:44;;;;;;;12.98;8.68;;;;;;;24.36;65.84;100120.56;8324709;28;20098;-59
2023/08/29 12:05:47;;;;;;;8.30;6.55;;;;;;;23.83;65.80;100126.09;8325111;28;20521;-59
2023/08/29 12:09:51;;;;;;;12.68;7.63;;;;;;;23.87;66.06;100123.69;8325332;28;20090;-60
2023/08/29 12:14:00;;;;;;;11.60;9.52;;;;;;;23.45;65.36;100120.06;8325118;28;20558;-60
2023/08/29 12:18:00;;;;;;;7.68;6.97;;;;;;;23.47;65.92;100115.16;8347783;28;20575;-62
2023/08/29 12:22:01;;;;;;;11.77;6.13;;;;;;;23.49;68.13;100113.00;8324980;28;20458;-61
2023/08/29 12:26:01;;;;;;;9.05;5.80;;;;;;;23.25;66.39;100110.38;8324930;28;20414;-61
2023/08/29 12:30:02;;;;;;;10.13;5.65;;;;;;;23.00;66.67;100111.28;8325249;28;20042;-59
2023/08/29 12:34:03;;;;;;;5.88;5.30;;;;;;;23.17;65.56;100095.78;8324297;28;20041;-58
2023/08/29 12:38:03;;;;;;;5.43;4.93;;;;;;;23.50;64.65;100091.75;8324669;28;20045;-62
2023/08/29 12:42:04;;;;;;;5.53;4.40;;;;;;;23.62;66.76;100084.38;8323220;28;20038;-61
2023/08/29 12:46:05;;;;;;;5.43;4.47;;;;;;;23.13;64.29;100080.78;8324158;28;20044;-61
2023/08/29 12:50:06;;;;;;;4.63;3.50;;;;;;;23.57;66.39;100075.97;8323637;28;20049;-61
2023/08/29 12:54:06;;;;;;;3.67;2.95;;;;;;;23.17;63.34;100081.16;8323405;28;20037;-62
2023/08/29 12:58:07;;;;;;;4.10;3.13;;;;;;;23.28;67.93;100074.03;8323268;28;20064;-62
2023/08/29 13:02:08;;;;;;;3.97;2.75;;;;;;;23.12;65.66;100073.56;8323142;28;20073;-62
2023/08/29 13:06:08;;;;;;;2.78;2.28;;;;;;;23.00;65.30;100072.66;8323482;28;20136;-62
2023/08/29 13:10:09;;;;;;;7.27;2.47;;;;;;;22.81;65.12;100065.50;8323387;28;20491;-62
2023/08/29 13:14:09;;;;;;;2.53;1.67;;;;;;;23.09;64.36;100057.50;8322936;28;20279;-61
2023/08/29 13:18:09;;;;;;;1.52;1.40;;;;;;;23.15;62.67;100045.53;8323350;28;20541;-62
2023/08/29 13:22:10;;;;;;;1.92;1.20;;;;;;;23.29;60.74;100053.66;8322426;28;20042;-61
2023/08/29 13:26:10;;;;;;;3.53;0.70;;;;;;;23.52;60.18;100039.94;8322323;28;20034;-62
2023/08/29 13:30:12;;;;;;;1.05;0.60;;;;;;;23.93;58.94;100040.75;8322574;28;20041;-61
2023/08/29 13:34:12;;;;;;;4.25;1.10;;;;;;;24.16;59.42;100042.72;8322541;28;20124;-62
2023/08/29 13:38:13;;;;;;;1.67;0.77;;;;;;;23.99;59.46;100036.19;8322696;28;20091;-61
2023/08/29 13:42:15;;;;;;;1.10;0.80;;;;;;;24.11;58.75;100029.63;8322630;28;20037;-61
2023/08/29 13:46:15;;;;;;;2.58;0.95;;;;;;;24.18;59.98;100029.50;8322148;28;20509;-62
2023/08/29 13:50:17;;;;;;;2.85;0.90;;;;;;;24.13;61.35;100021.94;8322594;28;20438;-62
2023/08/29 13:54:17;;;;;;;6.55;0.90;;;;;;;24.38;61.00;100027.19;8322102;28;20068;-62
2023/08/29 13:58:18;;;;;;;1.85;0.85;;;;;;;24.47;62.22;100023.84;8322282;28;20037;-62
2023/08/29 14:02:18;;;;;;;3.65;1.10;;;;;;;23.98;60.88;100023.47;8321781;28;20042;-62
2023/08/29 14:06:20;;;;;;;1.73;1.08;;;;;;;23.56;62.30;100013.53;8321564;28;20045;-61
2023/08/29 14:10:20;;;;;;;2.28;1.00;;;;;;;23.45;63.52;100025.41;8318229;28;20092;-61
2023/08/29 14:14:23;;;;;;;2.60;1.13;;;;;;;23.08;64.84;100033.75;8318417;28;20468;-62
2023/08/29 14:18:24;;;;;;;2.00;1.02;;;;;;;22.98;65.79;100027.09;8319980;28;20305;-61
2023/08/29 14:22:26;;;;;;;2.95;1.10;;;;;;;23.02;67.28;100029.16;8318861;28;20041;-61
2023/08/29 14:26:26;;;;;;;4.25;1.63;;;;;;;23.04;62.85;100027.03;8319760;28;20029;-61
2023/08/29 14:30:26;;;;;;;3.95;1.50;;;;;;;23.21;65.33;100028.03;8319101;28;20030;-62
2023/08/29 14:34:27;;;;;;;2.20;1.20;;;;;;;22.98;61.25;100024.34;8317572;28;20053;-61
2023/08/29 14:38:27;;;;;;;3.58;1.63;;;;;;;22.87;61.51;100031.47;8319334;28;20056;-63
2023/08/29 14:42:28;;;;;;;2.80;1.50;;;;;;;22.74;61.91;100028.91;8318731;28;20181;-63
2023/08/29 14:46:28;;;;;;;2.90;1.35;;;;;;;23.16;61.75;100030.69;8319032;28;20037;-62
2023/08/29 14:50:28;;;;;;;3.47;1.80;;;;;;;23.23;62.44;100035.25;8319987;28;20034;-63
2023/08/29 14:54:29;;;;;;;1.98;1.55;;;;;;;23.06;61.67;100024.84;8318884;28;20041;-63
2023/08/29 14:58:31;;;;;;;2.97;2.40;;;;;;;23.05;64.89;100030.59;8319468;28;20037;-63
2023/08/29 15:02:32;;;;;;;3.25;2.67;;;;;;;22.90;63.11;100035.69;8315204;28;20384;-63
2023/08/29 15:06:32;;;;;;;3.20;2.83;;;;;;;22.68;66.98;100029.81;8323055;28;20041;-63
2023/08/29 15:10:33;;;;;;;6.47;2.70;;;;;;;22.57;65.08;100030.59;8325431;28;20061;-63
2023/08/29 15:14:34;;;;;;;4.35;3.00;;;;;;;22.75;64.99;100016.78;8325293;28;20056;-63
2023/08/29 15:18:34;;;;;;;4.30;2.80;;;;;;;22.90;65.13;100014.47;8325309;28;20029;-63
2023/08/29 15:22:35;;;;;;;3.33;2.97;;;;;;;23.11;64.21;100016.72;8324638;28;20046;-63
2023/08/29 15:26:36;;;;;;;7.93;4.18;;;;;;;22.97;64.52;100014.41;8325336;28;20333;-63
2023/08/29 15:30:37;;;;;;;5.75;3.33;;;;;;;22.93;65.15;100018.69;8324846;28;20156;-63
2023/08/29 15:34:37;;;;;;;3.88;3.45;;;;;;;22.82;63.88;100013.97;8310022;28;20045;-63
2023/08/29 15:38:39;;;;;;;11.05;4.30;;;;;;;22.81;64.04;100021.38;8317708;28;20419;-62
2023/08/29 15:42:39;;;;;;;4.28;3.00;;;;;;;22.70;64.36;100011.16;8314383;28;20566;-62
2023/08/29 15:46:40;;;;;;;4.15;2.65;;;;;;;22.73;64.55;100023.63;8321894;28;20333;-62
2023/08/29 15:50:43;;;;;;;6.10;3.03;;;;;;;22.64;64.74;100020.34;8324230;28;20065;-59
2023/08/29 15:54:47;;;;;;;3.92;2.95;;;;;;;22.53;64.54;100023.00;8323773;28;20050;-60
2023/08/29 15:58:48;;;;;;;7.53;3.80;;;;;;;22.65;65.00;100011.00;8323363;28;20048;-60
2023/08/29 16:02:49;;;;;;;5.50;3.03;;;;;;;22.73;65.44;100018.97;8323854;28;20510;-63
2023/08/29 16:06:51;;;;;;;4.03;3.10;;;;;;;22.69;64.60;100006.69;8323700;28;20080;-59
2023/08/29 16:10:52;;;;;;;4.97;3.00;;;;;;;22.57;65.12;100008.53;8321070;28;20053;-59
2023/08/29 16:14:52;;;;;;;4.55;2.28;;;;;;;22.58;63.35;100021.25;8323119;28;20045;-59
2023/08/29 16:18:53;;;;;;;2.72;1.73;;;;;;;22.51;63.33;100009.47;8323142;28;20064;-59
2023/08/29 16:22:54;;;;;;;3.58;1.85;;;;;;;22.41;64.78;100011.88;8321986;28;20111;-59
2023/08/29 16:26:55;;;;;;;4.28;2.00;;;;;;;22.29;67.05;100013.69;8322548;28;20049;-60
2023/08/29 16:30:55;;;;;;;2.35;2.15;;;;;;;22.28;66.91;100014.78;8323118;28;20042;-59
2023/08/29 16:34:57;;;;;;;6.25;3.35;;;;;;;22.22;68.13;100014.84;8316678;28;20245;-59
2023/08/29 16:38:57;;;;;;;3.42;2.38;;;;;;;22.19;69.05;100018.91;8320485;28;20083;-59
2023/08/29 16:42:58;;;;;;;6.22;2.67;;;;;;;22.19;67.64;100015.28;8344162;28;20503;-59
2023/08/29 16:46:58;;;;;;;2.97;2.13;;;;;;;22.14;68.56;100017.91;8322754;28;20037;-59
2023/08/29 16:50:59;;;;;;;6.20;2.28;;;;;;;22.16;67.79;100024.88;8320877;28;20034;-60
2023/08/29 16:55:01;;;;;;;2.50;1.67;;;;;;;22.14;67.93;100021.50;8317401;28;20087;-59
2023/08/29 16:59:02;;;;;;;7.43;2.38;;;;;;;22.12;68.24;100015.38;8317310;28;20402;-59
2023/08/29 17:03:06;;;;;;;3.45;1.95;;;;;;;22.07;66.52;100017.97;8317736;28;20041;-59
2023/08/29 17:07:09;;;;;;;3.13;1.75;;;;;;;22.12;68.51;100014.53;8321950;28;20049;-59
2023/08/29 17:11:09;;;;;;;4.82;2.15;;;;;;;21.83;71.92;100015.25;8322905;28;20053;-59
2023/08/29 17:15:10;;;;;;;2.58;1.90;;;;;;;21.91;68.87;100023.19;8322748;28;20099;-59
2023/08/29 17:19:10;;;;;;;2.75;2.03;;;;;;;21.90;69.09;100018.78;8323075;28;20384;-59
2023/08/29 17:23:11;;;;;;;2.33;1.40;;;;;;;21.64;70.71;100017.06;8321288;28;20052;-59
2023/08/29 17:27:11;;;;;;;2.75;1.15;;;;;;;21.52;71.09;100010.59;8322050;28;20061;-60
2023/08/29 17:31:12;;;;;;;1.42;0.80;;;;;;;21.43;72.10;100017.44;8322159;28;20124;-59
2023/08/29 17:35:12;;;;;;;2.60;1.10;;;;;;;21.31;72.84;100011.81;8312119;28;20033;-60
2023/08/29 17:39:14;;;;;;;2.30;1.42;;;;;;;21.05;75.95;100016.63;8321779;28;20037;-59
2023/08/29 17:43:15;;;;;;;2.78;1.05;;;;;;;20.98;77.10;100013.91;8321355;28;20045;-59
2023/08/29 17:47:15;;;;;;;6.18;1.27;;;;;;;20.65;79.70;100015.09;8321754;28;20502;-58
2023/08/29 17:51:16;;;;;;;1.23;0.90;;;;;;;20.45;81.82;100009.69;8321791;28;20034;-58
2023/08/29 17:55:17;;;;;;;3.58;1.30;;;;;;;20.11;85.29;100018.19;8321663;28;20056;-60
2023/08/29 17:59:17;;;;;;;2.70;1.30;;;;;;;20.00;89.05;100009.78;8321558;28;20061;-61
2023/08/29 18:03:18;;;;;;;1.35;1.20;;;;;;;19.75;88.22;100011.47;8320615;28;20099;-60
2023/08/29 18:07:20;;;;;;;2.45;1.45;;;;;;;19.53;89.75;100005.38;8320807;28;20498;-60
2023/08/29 18:11:21;;;;;;;1.58;1.48;;;;;;;19.52;90.16;100005.56;8321091;28;20379;-60
2023/08/29 18:15:21;;;;;;;1.60;1.50;;;;;;;19.81;85.17;100005.97;8321383;28;20033;-59
2023/08/29 18:19:22;;;;;;;2.70;1.83;;;;;;;20.01;82.78;100005.97;8319750;28;20084;-60